createdAt,value
2023-01-09T00:02:18.247Z,20.26
2023-01-09T00:04:44.646Z,20.22
2023-01-09T04:09:15.937Z,19.88
2023-01-09T04:11:42.305Z,19.77
2023-01-09T04:14:08.718Z,19.77
2023-01-09T04:16:35.137Z,19.80
2023-01-09T04:19:01.569Z,19.84
2023-01-09T04:21:27.952Z,19.87
2023-01-09T04:23:54.324Z,19.90
2023-01-09T04:26:20.721Z,19.79
2023-01-09T04:28:47.110Z,19.89
2023-01-09T04:31:13.529Z,19.90
2023-01-09T04:33:39.956Z,19.78
2023-01-09T04:36:06.360Z,19.83
2023-01-09T04:38:32.722Z,19.81
2023-01-09T04:40:59.110Z,19.74
2023-01-09T04:43:25.477Z,19.77
2023-01-09T04:45:51.906Z,19.91
2023-01-09T04:48:18.292Z,19.85
2023-01-09T04:50:44.666Z,19.84
2023-01-09T04:53:11.053Z,19.87
2023-01-09T04:55:37.444Z,19.93
2023-01-09T04:58:03.824Z,19.85
2023-01-09T05:00:30.228Z,19.78
2023-01-09T05:02:56.631Z,19.89
2023-01-09T05:05:23.023Z,19.91
2023-01-09T05:07:49.408Z,19.87
2023-01-09T05:10:15.785Z,19.88
2023-01-09T05:12:42.189Z,19.85
2023-01-09T05:15:08.585Z,19.84
2023-01-09T05:17:34.980Z,19.99
2023-01-09T05:20:01.421Z,19.88
2023-01-09T05:22:27.848Z,19.88
2023-01-09T05:24:54.213Z,19.86
2023-01-09T05:27:20.592Z,19.89
2023-01-09T05:29:46.982Z,19.96
2023-01-09T05:32:13.378Z,19.90
2023-01-09T05:34:39.759Z,19.88
2023-01-09T05:37:06.129Z,19.97
2023-01-09T05:39:32.514Z,19.84
2023-01-09T05:41:58.892Z,19.94
2023-01-09T05:44:25.289Z,19.94
2023-01-09T05:46:51.706Z,19.90
2023-01-09T05:49:18.084Z,19.96
2023-01-09T05:51:44.465Z,20.00
2023-01-09T05:54:10.872Z,19.95
2023-01-09T05:56:37.267Z,19.98
2023-01-09T05:59:03.654Z,20.01
2023-01-09T06:01:30.064Z,19.98
2023-01-09T06:03:56.462Z,19.97
2023-01-09T06:06:22.830Z,20.01
2023-01-09T06:08:49.200Z,19.91
2023-01-09T06:11:15.573Z,19.92
2023-01-09T06:13:41.999Z,19.94
2023-01-09T06:16:08.411Z,19.91
2023-01-09T06:18:34.822Z,19.85
2023-01-09T06:21:01.190Z,19.83
2023-01-09T06:23:27.567Z,19.91
2023-01-09T06:25:53.960Z,19.90
2023-01-09T06:28:20.352Z,19.99
2023-01-09T06:30:46.760Z,19.97
2023-01-09T06:33:13.298Z,19.94
2023-01-09T06:35:39.768Z,19.96
2023-01-09T06:38:06.170Z,19.91
2023-01-09T06:40:32.569Z,20.08
2023-01-09T06:42:58.966Z,20.03
2023-01-09T06:45:25.368Z,20.00
2023-01-09T06:47:51.763Z,20.08
2023-01-09T06:50:18.179Z,20.06
2023-01-09T06:52:44.589Z,19.99
2023-01-09T06:55:10.991Z,20.09
2023-01-09T06:57:37.406Z,20.01
2023-01-09T07:00:03.806Z,20.03
2023-01-09T07:02:30.213Z,20.04
2023-01-09T07:04:56.611Z,20.05
2023-01-09T07:07:22.994Z,20.03
2023-01-09T07:09:49.421Z,19.94
2023-01-09T07:12:15.840Z,20.02
2023-01-09T07:14:42.264Z,20.05
2023-01-09T07:17:08.687Z,19.99
2023-01-09T07:19:35.076Z,20.02
2023-01-09T07:22:01.492Z,20.05
2023-01-09T07:24:27.929Z,20.12
2023-01-09T07:26:54.327Z,20.08
2023-01-09T07:29:20.701Z,20.07
2023-01-09T07:31:47.179Z,20.06
2023-01-09T07:34:13.587Z,20.09
2023-01-09T07:36:40.009Z,20.05
2023-01-09T07:39:06.411Z,20.04
2023-01-09T07:41:32.791Z,20.02
2023-01-09T07:43:59.184Z,20.08
2023-01-09T07:46:25.612Z,20.10
2023-01-09T07:48:52.002Z,20.06
2023-01-09T07:51:18.377Z,20.04
2023-01-09T07:53:44.773Z,20.05
2023-01-09T07:56:11.169Z,20.09
2023-01-09T07:58:37.582Z,20.15
2023-01-09T08:01:04.005Z,20.19
2023-01-09T08:03:30.428Z,20.20
2023-01-09T08:05:56.863Z,20.20
2023-01-09T08:08:23.279Z,20.22
2023-01-09T08:10:49.681Z,20.21
2023-01-09T08:13:16.072Z,20.22
2023-01-09T08:15:42.523Z,20.21
2023-01-09T08:18:08.948Z,20.21
2023-01-09T08:20:35.380Z,20.24
2023-01-09T08:23:01.791Z,20.22
2023-01-09T08:25:28.179Z,20.28
2023-01-09T08:27:54.583Z,20.20
2023-01-09T08:30:20.989Z,20.18
2023-01-09T08:32:47.366Z,20.25
2023-01-09T08:35:13.769Z,20.21
2023-01-09T08:37:40.178Z,20.25
2023-01-09T08:40:06.560Z,20.26
2023-01-09T08:42:32.972Z,20.33
2023-01-09T08:44:59.380Z,20.31
2023-01-09T08:47:25.774Z,20.29
2023-01-09T08:49:52.166Z,20.26
2023-01-09T08:52:18.570Z,20.23
2023-01-09T08:54:44.961Z,20.26
2023-01-09T08:57:11.373Z,20.33
2023-01-09T08:59:37.772Z,20.28
2023-01-09T09:02:04.220Z,20.28
2023-01-09T09:04:30.647Z,20.27
2023-01-09T09:06:57.043Z,20.31
2023-01-09T09:09:23.521Z,20.34
2023-01-09T09:11:49.917Z,20.30
2023-01-09T09:14:16.290Z,20.35
2023-01-09T09:16:42.677Z,20.39
2023-01-09T09:19:09.078Z,20.32
2023-01-09T09:21:35.477Z,20.40
2023-01-09T09:24:01.895Z,20.31
2023-01-09T09:26:28.333Z,20.33
2023-01-09T09:28:54.737Z,20.30
2023-01-09T09:31:21.195Z,20.27
2023-01-09T09:33:47.629Z,20.31
2023-01-09T09:36:14.012Z,20.30
2023-01-09T09:38:40.405Z,20.28
2023-01-09T09:41:06.815Z,20.29
2023-01-09T09:43:33.198Z,20.30
2023-01-09T09:45:59.610Z,20.37
2023-01-09T09:48:26.031Z,20.31
2023-01-09T09:50:52.508Z,20.38
2023-01-09T09:53:19.008Z,20.39
2023-01-09T09:55:45.393Z,20.36
2023-01-09T09:58:11.797Z,20.27
2023-01-09T10:00:38.202Z,20.30
2023-01-09T10:03:04.606Z,20.31
2023-01-09T10:05:30.991Z,20.36
2023-01-09T10:07:59.535Z,20.27
2023-01-09T10:10:29.842Z,20.23
2023-01-09T10:12:56.248Z,20.24
2023-01-09T10:15:22.649Z,20.27
2023-01-09T10:17:49.045Z,20.22
2023-01-09T10:20:15.441Z,20.25
2023-01-09T10:22:41.828Z,20.36
2023-01-09T10:25:08.300Z,20.43
2023-01-09T10:27:34.702Z,20.48
2023-01-09T10:30:01.104Z,20.51
2023-01-09T10:32:27.497Z,20.54
2023-01-09T10:34:55.258Z,20.53
2023-01-09T10:37:21.665Z,20.58
2023-01-09T10:39:48.147Z,20.56
2023-01-09T10:42:14.538Z,20.54
2023-01-09T10:44:40.936Z,20.56
2023-01-09T10:47:07.321Z,20.52
2023-01-09T10:49:33.713Z,20.53
2023-01-09T10:52:00.098Z,20.55
2023-01-09T10:54:26.493Z,20.52
2023-01-09T10:56:52.895Z,20.56
2023-01-09T10:59:19.309Z,20.52
2023-01-09T11:01:45.701Z,20.45
2023-01-09T11:04:12.097Z,20.47
2023-01-09T11:06:38.483Z,20.46
2023-01-09T11:09:04.869Z,20.35
2023-01-09T11:11:31.344Z,20.35
2023-01-09T11:13:57.711Z,20.39
2023-01-09T11:16:24.158Z,20.40
2023-01-09T11:18:50.592Z,20.41
2023-01-09T11:21:16.975Z,20.38
2023-01-09T11:23:43.358Z,20.40
2023-01-09T11:26:11.062Z,20.39
2023-01-09T11:28:37.493Z,20.39
2023-01-09T11:31:03.939Z,20.41
2023-01-09T11:33:30.398Z,20.32
2023-01-09T11:35:56.781Z,20.39
2023-01-09T11:38:23.149Z,20.25
2023-01-09T11:40:49.554Z,20.30
2023-01-09T11:43:15.938Z,20.34
2023-01-09T11:45:47.704Z,20.32
2023-01-09T11:48:16.749Z,20.29
2023-01-09T11:50:43.145Z,20.30
2023-01-09T11:53:09.521Z,20.26
2023-01-09T11:55:42.441Z,20.22
2023-01-09T11:58:09.537Z,20.25
2023-01-09T12:00:35.919Z,20.28
2023-01-09T12:03:02.321Z,20.30
2023-01-09T12:05:28.719Z,20.34
2023-01-09T12:07:55.092Z,20.31
2023-01-09T12:10:21.509Z,20.28
2023-01-09T12:12:47.884Z,20.32
2023-01-09T12:15:14.277Z,20.39
2023-01-09T12:17:41.091Z,20.41
2023-01-09T12:20:07.508Z,20.38
2023-01-09T12:22:33.886Z,20.39
2023-01-09T12:25:00.275Z,20.38
2023-01-09T12:27:26.644Z,20.42
2023-01-09T12:29:53.009Z,20.28
2023-01-09T12:32:19.411Z,20.21
2023-01-09T12:34:45.778Z,20.14
2023-01-09T12:37:12.221Z,20.24
2023-01-09T12:39:38.611Z,20.19
2023-01-09T12:42:04.997Z,20.26
2023-01-09T12:44:35.982Z,20.17
2023-01-09T12:47:02.641Z,20.15
2023-01-09T12:49:29.053Z,20.20
2023-01-09T12:51:55.438Z,20.20
2023-01-09T12:54:21.843Z,20.10
2023-01-09T12:56:48.254Z,20.12
2023-01-09T12:59:14.617Z,20.16
2023-01-09T13:01:41.008Z,20.13
2023-01-09T13:04:07.414Z,20.15
2023-01-09T13:06:33.795Z,20.19
2023-01-09T13:09:00.171Z,20.07
2023-01-09T13:11:26.573Z,20.06
2023-01-09T13:13:52.980Z,20.15
2023-01-09T13:16:19.395Z,20.11
2023-01-09T13:18:46.013Z,20.13
2023-01-09T13:21:12.418Z,20.06
2023-01-09T13:23:38.833Z,20.10
2023-01-09T13:26:05.238Z,20.05
2023-01-09T13:28:31.610Z,20.00
2023-01-09T13:30:58.796Z,20.04
2023-01-09T13:33:25.282Z,20.08
2023-01-09T13:35:51.705Z,20.10
2023-01-09T13:38:18.078Z,20.13
2023-01-09T13:40:44.438Z,20.13
2023-01-09T13:43:10.836Z,20.10
2023-01-09T13:45:37.275Z,20.11
2023-01-09T13:48:03.686Z,20.13
2023-01-09T13:50:30.154Z,20.13
2023-01-09T13:52:56.543Z,20.12
2023-01-09T13:55:22.914Z,20.07
2023-01-09T13:57:49.305Z,20.04
2023-01-09T14:00:15.696Z,20.12
2023-01-09T14:02:42.081Z,20.08
2023-01-09T14:05:08.482Z,20.03
2023-01-09T14:07:34.875Z,20.06
2023-01-09T14:10:01.260Z,20.09
2023-01-09T14:12:27.729Z,20.07
2023-01-09T14:14:54.112Z,20.02
2023-01-09T14:17:20.491Z,20.03
2023-01-09T14:19:46.878Z,20.04
2023-01-09T14:22:13.292Z,20.06
2023-01-09T14:24:39.682Z,20.02
2023-01-09T14:27:06.329Z,20.03
2023-01-09T14:29:32.696Z,20.01
2023-01-09T14:31:59.116Z,20.06
2023-01-09T14:34:31.093Z,20.01
2023-01-09T14:36:57.988Z,20.05
2023-01-09T14:39:24.378Z,20.00
2023-01-09T14:41:50.767Z,19.98
2023-01-09T14:44:17.152Z,19.98
2023-01-09T14:46:43.533Z,20.00
2023-01-09T14:49:09.923Z,19.99
2023-01-09T14:51:36.312Z,20.03
2023-01-09T14:54:02.720Z,20.08
2023-01-09T14:56:29.118Z,20.14
2023-01-09T14:58:55.550Z,20.09
2023-01-09T15:01:21.961Z,20.13
2023-01-09T15:03:48.388Z,20.10
2023-01-09T15:06:14.781Z,20.06
2023-01-09T15:08:41.156Z,20.00
2023-01-09T15:11:07.556Z,20.02
2023-01-09T15:13:33.949Z,20.04
2023-01-09T15:16:00.333Z,20.05
2023-01-09T15:18:26.702Z,20.05
2023-01-09T15:20:53.090Z,20.05
2023-01-09T15:23:19.457Z,20.19
2023-01-09T15:25:45.815Z,20.16
2023-01-09T15:28:12.217Z,20.21
2023-01-09T15:30:38.581Z,20.11
2023-01-09T15:33:04.938Z,20.11
2023-01-09T15:35:31.329Z,20.07
2023-01-09T15:37:57.746Z,20.14
2023-01-09T15:40:24.133Z,20.07
2023-01-09T15:42:50.503Z,20.09
2023-01-09T15:45:16.893Z,20.09
2023-01-09T15:47:43.256Z,20.12
2023-01-09T15:50:11.301Z,20.11
2023-01-09T15:52:38.838Z,20.12
2023-01-09T15:55:05.231Z,20.09
2023-01-09T15:57:31.604Z,20.09
2023-01-09T15:59:57.985Z,20.10
2023-01-09T16:02:24.402Z,20.09
2023-01-09T16:04:50.841Z,20.09
2023-01-09T16:07:17.249Z,20.09
2023-01-09T16:09:43.832Z,20.04
2023-01-09T16:12:10.245Z,20.05
2023-01-09T16:14:36.632Z,20.02
2023-01-09T16:17:03.029Z,20.04
2023-01-09T16:19:29.395Z,19.99
2023-01-09T16:21:55.768Z,20.01
2023-01-09T16:24:22.152Z,19.99
2023-01-09T16:26:48.505Z,20.03
2023-01-09T16:29:15.022Z,19.99
2023-01-09T16:31:41.471Z,20.05
2023-01-09T16:34:07.858Z,20.03
2023-01-09T16:36:34.287Z,20.08
2023-01-09T16:39:00.684Z,20.05
2023-01-09T16:41:27.052Z,20.03
2023-01-09T16:43:53.434Z,20.05
2023-01-09T16:46:19.830Z,20.07
2023-01-09T16:48:46.257Z,20.08
2023-01-09T16:51:12.618Z,20.07
2023-01-09T16:53:38.984Z,20.07
2023-01-09T16:56:05.354Z,20.04
2023-01-09T16:58:31.710Z,20.10
2023-01-09T17:00:58.150Z,20.16
2023-01-09T17:03:24.596Z,20.10
2023-01-09T17:05:50.960Z,20.17
2023-01-09T17:08:17.345Z,20.00
2023-01-09T17:10:43.731Z,19.94
2023-01-09T17:13:10.102Z,20.07
2023-01-09T17:15:36.478Z,20.02
2023-01-09T17:18:02.916Z,20.02
2023-01-09T17:20:29.293Z,20.01
2023-01-09T17:22:55.650Z,20.02
2023-01-09T17:25:22.032Z,19.90
2023-01-09T17:27:48.413Z,19.96
2023-01-09T17:30:18.988Z,20.09
2023-01-09T17:32:45.563Z,20.04
2023-01-09T17:35:11.969Z,20.01
2023-01-09T17:37:38.347Z,19.99
2023-01-09T17:40:04.789Z,19.97
2023-01-09T17:42:31.198Z,19.97
2023-01-09T17:44:57.562Z,20.01
2023-01-09T17:47:23.973Z,20.05
2023-01-09T17:49:50.372Z,20.06
2023-01-09T17:52:16.755Z,20.08
2023-01-09T17:54:43.178Z,20.13
2023-01-09T17:57:09.562Z,20.14
2023-01-09T17:59:35.927Z,20.27
2023-01-09T18:02:02.358Z,20.26
2023-01-09T18:04:28.750Z,20.27
2023-01-09T18:06:55.136Z,20.23
2023-01-09T18:09:21.538Z,20.17
2023-01-09T18:11:47.925Z,19.76
2023-01-09T18:14:14.290Z,19.91
2023-01-09T18:16:40.738Z,20.02
2023-01-09T18:19:07.159Z,20.04
2023-01-09T18:21:33.547Z,20.09
2023-01-09T18:23:59.929Z,20.09
2023-01-09T18:26:26.337Z,20.03
2023-01-09T18:28:52.729Z,20.05
2023-01-09T18:31:19.132Z,20.16
2023-01-09T18:33:45.518Z,20.12
2023-01-09T18:36:11.909Z,20.07
2023-01-09T18:38:38.310Z,20.10
2023-01-09T18:41:04.697Z,20.09
2023-01-09T18:43:31.117Z,20.08
2023-01-09T18:45:57.543Z,20.06
2023-01-09T18:48:23.957Z,20.09
2023-01-09T18:50:50.349Z,20.06
2023-01-09T18:53:16.749Z,20.06
2023-01-09T18:55:43.144Z,20.03
2023-01-09T18:58:09.532Z,20.06
2023-01-09T19:00:35.936Z,20.02
2023-01-09T19:03:02.332Z,20.03
2023-01-09T19:05:28.688Z,20.03
2023-01-09T19:07:55.073Z,20.00
2023-01-09T19:10:21.504Z,20.01
2023-01-09T19:12:47.889Z,20.05
2023-01-09T19:15:14.268Z,20.02
2023-01-09T19:17:40.635Z,20.06
2023-01-09T19:20:07.029Z,20.02
2023-01-09T19:22:33.403Z,20.06
2023-01-09T19:24:59.788Z,20.03
2023-01-09T19:27:26.196Z,20.01
2023-01-09T19:29:52.577Z,20.01
2023-01-09T19:32:18.959Z,20.08
2023-01-09T19:34:45.353Z,20.07
2023-01-09T19:37:11.762Z,20.05
2023-01-09T19:39:38.187Z,20.04
2023-01-09T19:42:04.564Z,20.05
2023-01-09T19:44:30.954Z,20.00
2023-01-09T19:46:57.322Z,19.99
2023-01-09T19:49:23.682Z,19.94
2023-01-09T19:51:50.075Z,20.01
2023-01-09T19:54:16.445Z,20.02
2023-01-09T19:56:42.857Z,19.94
2023-01-09T19:59:09.236Z,20.02
2023-01-09T20:01:35.709Z,19.99
2023-01-09T20:04:02.121Z,19.97
2023-01-09T20:06:28.514Z,19.94
2023-01-09T20:08:54.910Z,19.89
2023-01-09T20:11:21.298Z,20.02
2023-01-09T20:13:47.693Z,20.06
2023-01-09T20:16:14.117Z,19.93
2023-01-09T20:18:40.498Z,19.98
2023-01-09T20:21:06.898Z,19.96
2023-01-09T20:23:33.277Z,19.94
2023-01-09T20:26:00.016Z,19.94
2023-01-09T20:28:26.451Z,19.97
2023-01-09T20:30:52.856Z,19.98
2023-01-09T20:33:19.251Z,20.01
2023-01-09T20:35:45.616Z,19.95
2023-01-09T20:38:11.990Z,20.00
2023-01-09T20:40:38.371Z,19.97
2023-01-09T20:43:04.763Z,20.02
2023-01-09T20:45:31.208Z,19.97
2023-01-09T20:47:57.631Z,20.02
2023-01-09T20:50:24.045Z,19.96
2023-01-09T20:52:50.453Z,20.01
2023-01-09T20:55:16.832Z,19.97
2023-01-09T20:57:43.216Z,20.02
2023-01-09T21:00:09.592Z,19.95
2023-01-09T21:02:35.970Z,19.98
2023-01-09T21:05:02.350Z,20.00
2023-01-09T21:07:28.718Z,19.96
2023-01-09T21:09:55.083Z,19.97
2023-01-09T21:12:21.457Z,19.96
2023-01-09T21:14:47.828Z,19.97
2023-01-09T21:17:14.196Z,19.98
2023-01-09T21:19:40.590Z,19.94
2023-01-09T21:22:06.950Z,19.92
2023-01-09T21:24:33.313Z,19.90
2023-01-09T21:26:59.705Z,19.91
2023-01-09T21:29:26.074Z,19.91
2023-01-09T21:31:52.470Z,19.96
2023-01-09T21:34:18.898Z,19.96
2023-01-09T21:36:45.334Z,19.90
2023-01-09T21:39:11.719Z,19.91
2023-01-09T21:41:38.104Z,20.01
2023-01-09T21:44:04.484Z,19.95
2023-01-09T21:46:30.949Z,19.93
2023-01-09T21:48:57.324Z,19.93
2023-01-09T21:51:23.713Z,19.97
2023-01-09T21:53:50.083Z,19.97
2023-01-09T21:56:16.442Z,19.92
2023-01-09T21:58:42.814Z,19.95
2023-01-09T22:01:09.226Z,19.96
2023-01-09T22:03:35.631Z,19.98
2023-01-09T22:06:01.997Z,20.00
2023-01-09T22:08:28.396Z,19.95
2023-01-09T22:10:54.768Z,19.99
2023-01-09T22:13:21.131Z,20.07
2023-01-09T22:15:47.528Z,20.04
2023-01-09T22:18:13.899Z,20.04
2023-01-09T22:20:40.273Z,20.00
2023-01-09T22:23:06.648Z,19.90
2023-01-09T22:25:33.034Z,19.99
2023-01-09T22:27:59.414Z,19.96
2023-01-09T22:30:25.810Z,20.11
2023-01-09T22:32:52.182Z,20.17
2023-01-09T22:35:18.625Z,20.17
2023-01-09T22:37:45.000Z,20.10
2023-01-09T22:40:11.382Z,20.19
2023-01-09T22:42:37.777Z,20.07
2023-01-09T22:45:04.149Z,20.26
2023-01-09T22:47:30.530Z,20.17
2023-01-09T22:49:56.898Z,20.09
2023-01-09T22:52:23.285Z,20.12
2023-01-09T22:54:49.658Z,20.15
2023-01-09T22:57:16.031Z,20.08
2023-01-09T22:59:42.404Z,20.22
2023-01-09T23:02:08.894Z,20.18
2023-01-09T23:04:35.354Z,20.18
2023-01-09T23:07:01.732Z,20.11
2023-01-09T23:09:28.086Z,20.16
2023-01-09T23:11:54.461Z,20.10
2023-01-09T23:14:20.840Z,20.14
2023-01-09T23:16:47.249Z,20.12
2023-01-09T23:19:13.787Z,20.06
2023-01-09T23:21:40.166Z,20.06
2023-01-09T23:24:06.548Z,20.12
2023-01-09T23:26:32.957Z,20.09
2023-01-09T23:28:59.341Z,20.11
2023-01-09T23:31:25.735Z,20.05
2023-01-09T23:33:52.110Z,20.13
2023-01-09T23:36:18.489Z,20.08
2023-01-09T23:38:44.854Z,20.12
2023-01-09T23:41:11.236Z,20.06
2023-01-09T23:43:37.633Z,19.88
2023-01-09T23:46:04.107Z,19.88
2023-01-09T23:48:30.578Z,19.92
2023-01-09T23:50:57.024Z,19.96
2023-01-09T23:53:23.403Z,19.86
2023-01-09T23:55:49.794Z,19.90
2023-01-09T23:58:16.175Z,19.96
